Time;durP1;ratioP1;P1;durP2;ratioP2;P2;SDS_P1;SDS_P2;PMS_P1;PMS_P2;Temp;Humidity;BMP_temperature;BMP_pressure;BME280_temperature;BME280_humidity;BME280_pressure;Samples;Min_cycle;Max_cycle;Signal;HPM_P1;HPM_P2
2023/12/28 00:01:20;;;;;;;6.43;3.05;;;8.30;99.90;;;;;;5077507;28;20131;-72
2023/12/28 00:03:46;;;;;;;6.68;3.00;;;8.30;99.90;;;;;;5060879;28;20048;-72
2023/12/28 00:06:11;;;;;;;6.70;2.97;;;8.30;99.90;;;;;;5044188;28;20444;-73
2023/12/28 00:08:37;;;;;;;6.65;3.17;;;8.30;99.90;;;;;;5044023;28;20040;-72
2023/12/28 00:11:03;;;;;;;6.55;2.97;;;8.40;99.90;;;;;;5060563;28;20040;-73
2023/12/28 00:13:29;;;;;;;5.78;3.15;;;8.40;99.90;;;;;;5060996;28;20036;-73
2023/12/28 00:15:54;;;;;;;6.80;3.30;;;8.40;99.90;;;;;;5060915;28;20032;-73
2023/12/28 00:18:20;;;;;;;6.93;3.42;;;8.50;99.90;;;;;;5060433;28;20078;-73
2023/12/28 00:20:46;;;;;;;7.45;3.20;;;8.50;99.90;;;;;;5077259;28;20047;-73
2023/12/28 00:23:12;;;;;;;7.53;3.60;;;8.50;99.90;;;;;;5060452;28;20044;-73
2023/12/28 00:25:38;;;;;;;8.75;3.47;;;8.60;99.90;;;;;;5060748;28;20040;-72
2023/12/28 00:28:04;;;;;;;7.05;3.38;;;8.70;99.90;;;;;;5060608;28;20488;-73
2023/12/28 00:30:32;;;;;;;8.20;3.50;;;8.80;99.90;;;;;;5043570;28;20043;-73
2023/12/28 00:32:58;;;;;;;7.00;3.85;;;8.90;99.90;;;;;;5060483;28;20085;-73
2023/12/28 00:35:24;;;;;;;7.78;3.50;;;8.80;99.90;;;;;;5060482;28;20032;-73
2023/12/28 00:37:50;;;;;;;7.95;4.00;;;8.90;99.90;;;;;;5060452;28;20387;-73
2023/12/28 00:40:16;;;;;;;6.50;3.20;;;9.10;99.90;;;;;;5043872;28;20503;-73
2023/12/28 00:42:41;;;;;;;7.00;3.90;;;9.10;99.90;;;;;;5060004;28;20130;-73
2023/12/28 00:45:09;;;;;;;6.68;3.80;;;9.10;99.90;;;;;;5076956;28;20131;-73
2023/12/28 00:47:34;;;;;;;7.80;3.60;;;9.10;99.90;;;;;;5060671;28;20040;-80
2023/12/28 00:50:00;;;;;;;6.72;3.60;;;9.20;99.90;;;;;;5060385;28;20093;-80
2023/12/28 00:52:26;;;;;;;7.60;3.50;;;9.20;99.90;;;;;;5059968;28;20042;-79
2023/12/28 00:54:52;;;;;;;7.53;3.70;;;9.10;99.90;;;;;;5043336;28;20181;-80
2023/12/28 00:57:18;;;;;;;7.75;3.70;;;9.10;99.90;;;;;;5060138;28;20043;-79
2023/12/28 00:59:44;;;;;;;6.55;3.65;;;9.10;99.90;;;;;;5059293;28;20469;-79
2023/12/28 01:02:10;;;;;;;7.35;3.45;;;9.10;99.90;;;;;;5059875;28;20043;-80
2023/12/28 01:04:36;;;;;;;8.38;3.70;;;9.10;99.90;;;;;;5043066;28;20062;-81
2023/12/28 01:07:04;;;;;;;7.93;3.67;;;9.10;99.90;;;;;;5059947;28;20036;-77
2023/12/28 01:09:32;;;;;;;6.90;3.28;;;9.10;99.90;;;;;;5060474;28;20558;-78
2023/12/28 01:11:58;;;;;;;7.30;3.60;;;9.00;99.90;;;;;;5043399;28;20036;-78
2023/12/28 01:14:24;;;;;;;6.97;3.60;;;9.00;99.90;;;;;;5076571;28;20404;-78
2023/12/28 01:16:50;;;;;;;6.55;3.40;;;9.00;99.90;;;;;;5059730;28;20036;-78
2023/12/28 01:19:16;;;;;;;6.78;3.65;;;9.00;99.90;;;;;;5059900;28;20070;-78
2023/12/28 01:21:42;;;;;;;7.18;3.42;;;9.00;99.90;;;;;;5076635;28;20124;-78
2023/12/28 01:24:08;;;;;;;7.28;3.40;;;8.90;99.90;;;;;;5059713;28;20101;-78
2023/12/28 01:26:34;;;;;;;6.78;3.50;;;8.90;99.90;;;;;;5059730;28;20036;-79
2023/12/28 01:29:03;;;;;;;6.65;3.35;;;8.80;99.90;;;;;;5059735;28;20550;-79
2023/12/28 01:31:29;;;;;;;8.02;3.40;;;8.80;99.90;;;;;;5059584;28;20054;-79
2023/12/28 01:33:55;;;;;;;8.68;3.70;;;8.80;99.90;;;;;;5059633;28;20119;-80
2023/12/28 01:36:21;;;;;;;7.53;3.50;;;8.80;99.90;;;;;;5076203;28;20079;-80
2023/12/28 01:38:48;;;;;;;7.80;3.40;;;8.70;99.90;;;;;;5076297;28;20524;-80
2023/12/28 01:41:15;;;;;;;7.10;3.47;;;8.70;99.90;;;;;;5059585;28;20044;-80
2023/12/28 01:43:42;;;;;;;6.65;3.35;;;8.70;99.90;;;;;;5076661;28;20048;-80
2023/12/28 01:46:13;;;;;;;7.75;3.55;;;8.70;99.90;;;;;;5059341;28;20067;-80
2023/12/28 01:48:39;;;;;;;8.25;3.58;;;8.70;99.90;;;;;;5059613;28;20429;-80
2023/12/28 01:51:05;;;;;;;9.30;3.70;;;8.70;99.90;;;;;;5076075;28;20055;-79
2023/12/28 01:53:31;;;;;;;6.43;3.72;;;8.80;99.90;;;;;;5059024;28;20431;-79
2023/12/28 01:55:59;;;;;;;8.75;3.85;;;8.70;99.90;;;;;;5059626;28;20051;-79
2023/12/28 01:58:28;;;;;;;6.70;3.30;;;8.70;99.90;;;;;;5059220;28;20038;-79
2023/12/28 02:00:56;;;;;;;7.93;3.60;;;8.70;99.90;;;;;;5075765;28;20555;-79
2023/12/28 02:03:22;;;;;;;7.53;3.47;;;8.70;99.90;;;;;;5059122;28;20508;-79
2023/12/28 02:05:48;;;;;;;9.57;3.67;;;8.70;99.90;;;;;;5059014;28;20125;-79
2023/12/28 02:08:14;;;;;;;8.98;4.10;;;8.60;99.90;;;;;;5041980;28;20040;-79
2023/12/28 02:10:40;;;;;;;8.50;3.85;;;8.60;99.90;;;;;;5075096;28;20047;-79
2023/12/28 02:13:06;;;;;;;7.85;3.58;;;8.60;99.90;;;;;;5058884;28;20127;-79
2023/12/28 02:15:32;;;;;;;7.95;3.60;;;8.60;99.90;;;;;;5059196;28;20054;-79
2023/12/28 02:18:12;;;;;;;9.43;3.80;;;8.60;99.90;;;;;;5075374;28;20093;-79
2023/12/28 02:20:39;;;;;;;9.38;3.30;;;8.60;99.90;;;;;;5075391;28;20514;-79
2023/12/28 02:23:06;;;;;;;8.02;3.65;;;8.70;99.90;;;;;;5058614;28;20519;-79
2023/12/28 02:25:32;;;;;;;7.78;3.65;;;8.70;99.90;;;;;;5042149;28;20040;-79
2023/12/28 02:27:58;;;;;;;8.75;3.83;;;8.70;99.90;;;;;;5041981;28;20101;-79
2023/12/28 02:30:25;;;;;;;8.65;3.50;;;8.70;99.90;;;;;;5058211;28;20097;-78
2023/12/28 02:33:01;;;;;;;7.80;3.53;;;8.60;99.90;;;;;;5041961;28;20075;-79
2023/12/28 02:35:36;;;;;;;8.70;3.88;;;8.60;99.90;;;;;;5075163;28;20484;-79
2023/12/28 02:38:09;;;;;;;8.15;3.83;;;8.70;99.90;;;;;;5058780;28;20427;-79
2023/12/28 02:40:45;;;;;;;8.40;3.70;;;8.60;99.90;;;;;;5075186;28;20039;-79
2023/12/28 02:43:12;;;;;;;9.52;4.13;;;8.70;99.90;;;;;;5042033;28;20054;-79
2023/12/28 02:45:39;;;;;;;8.98;3.78;;;8.70;99.90;;;;;;5058353;28;20447;-79
2023/12/28 02:48:06;;;;;;;7.88;3.80;;;8.70;99.90;;;;;;5057975;28;20048;-78
2023/12/28 02:50:33;;;;;;;8.43;3.80;;;8.70;99.90;;;;;;5041896;28;20044;-79
2023/12/28 02:52:59;;;;;;;9.05;3.95;;;8.70;99.90;;;;;;5058080;28;20070;-79
2023/12/28 02:55:25;;;;;;;7.68;4.03;;;8.70;99.90;;;;;;5038690;28;20408;-79
2023/12/28 02:57:54;;;;;;;8.95;3.63;;;8.70;99.90;;;;;;5005272;28;20182;-79
2023/12/28 03:00:21;;;;;;;8.10;4.20;;;8.70;99.90;;;;;;5038417;28;20033;-79
2023/12/28 03:02:47;;;;;;;10.30;4.30;;;8.70;99.90;;;;;;5038022;28;20041;-79
2023/12/28 03:05:13;;;;;;;9.70;3.92;;;8.70;99.90;;;;;;5037957;28;20302;-79
2023/12/28 03:07:40;;;;;;;9.82;3.88;;;8.70;99.90;;;;;;5037926;28;20033;-79
2023/12/28 03:10:07;;;;;;;10.57;4.15;;;8.90;99.90;;;;;;5038131;28;20575;-79
2023/12/28 03:12:33;;;;;;;9.07;4.10;;;8.90;99.90;;;;;;5054806;28;20392;-79
2023/12/28 03:14:58;;;;;;;8.43;3.88;;;9.00;99.90;;;;;;5037802;28;20043;-79
2023/12/28 03:17:24;;;;;;;7.85;3.53;;;9.00;99.90;;;;;;5054668;28;20047;-79
2023/12/28 03:19:53;;;;;;;9.00;4.00;;;9.00;99.90;;;;;;5037824;28;20033;-79
2023/12/28 03:22:19;;;;;;;9.25;3.85;;;9.00;99.90;;;;;;5021582;28;20393;-79
2023/12/28 03:24:46;;;;;;;8.65;3.63;;;9.10;99.90;;;;;;5040745;28;20040;-79
2023/12/28 03:27:12;;;;;;;10.35;3.70;;;9.10;99.90;;;;;;5058257;28;20123;-80
2023/12/28 03:29:38;;;;;;;9.55;4.00;;;9.20;99.90;;;;;;5058122;28;20143;-80
2023/12/28 03:32:04;;;;;;;9.52;3.83;;;9.20;99.90;;;;;;5058071;28;20040;-79
2023/12/28 03:34:30;;;;;;;7.97;3.40;;;9.20;99.90;;;;;;5058099;28;20044;-79
2023/12/28 03:36:59;;;;;;;7.32;3.50;;;9.10;99.90;;;;;;5041333;28;20508;-79
2023/12/28 03:39:25;;;;;;;9.77;3.95;;;9.20;99.90;;;;;;5058199;28;20078;-79
2023/12/28 03:41:52;;;;;;;7.97;3.42;;;9.10;99.90;;;;;;5041646;28;20501;-79
2023/12/28 03:44:20;;;;;;;8.90;3.20;;;9.20;99.90;;;;;;5058128;28;20500;-79
2023/12/28 03:46:48;;;;;;;9.25;3.75;;;9.20;99.90;;;;;;5057869;28;20044;-79
2023/12/28 03:49:16;;;;;;;10.20;3.28;;;9.20;99.90;;;;;;5024820;28;20045;-79
2023/12/28 03:51:42;;;;;;;8.10;3.28;;;9.30;99.90;;;;;;5057767;28;20040;-79
2023/12/28 03:54:08;;;;;;;10.60;3.33;;;9.30;99.90;;;;;;5013446;28;20063;-79
2023/12/28 03:56:35;;;;;;;12.02;3.40;;;9.30;99.90;;;;;;5041115;28;20040;-79
2023/12/28 03:59:01;;;;;;;8.75;3.53;;;9.30;99.90;;;;;;5057713;28;20037;-79
2023/12/28 04:01:27;;;;;;;8.60;3.35;;;9.30;99.90;;;;;;5040978;28;20040;-79
2023/12/28 04:03:53;;;;;;;10.07;3.30;;;9.30;99.90;;;;;;5040891;28;20047;-79
2023/12/28 04:06:18;;;;;;;10.20;3.53;;;9.40;99.90;;;;;;5024865;28;20493;-80
2023/12/28 04:08:44;;;;;;;10.40;3.60;;;9.40;99.90;;;;;;5024446;28;20055;-79
2023/12/28 04:11:10;;;;;;;7.35;3.30;;;9.40;99.90;;;;;;5040717;28;20132;-79
2023/12/28 04:13:36;;;;;;;9.00;3.33;;;9.50;99.90;;;;;;5041014;28;20585;-79
2023/12/28 04:16:02;;;;;;;10.27;3.47;;;9.50;99.90;;;;;;5041117;28;20441;-73
2023/12/28 04:18:28;;;;;;;8.35;3.05;;;9.50;99.90;;;;;;5040868;28;20485;-73
2023/12/28 04:20:54;;;;;;;7.80;2.90;;;9.50;99.90;;;;;;5024372;28;20048;-73
2023/12/28 04:23:20;;;;;;;10.32;3.33;;;9.50;99.90;;;;;;5024299;28;20041;-73
2023/12/28 04:25:46;;;;;;;9.43;3.40;;;9.50;99.90;;;;;;5040483;28;20041;-73
2023/12/28 04:28:12;;;;;;;8.73;3.35;;;9.50;99.90;;;;;;5040692;28;20047;-73
2023/12/28 04:30:38;;;;;;;8.48;3.00;;;9.50;99.90;;;;;;5040292;28;20556;-73
2023/12/28 04:33:04;;;;;;;8.82;3.13;;;9.50;99.90;;;;;;5056911;28;20032;-73
2023/12/28 04:35:30;;;;;;;9.15;3.20;;;9.50;99.90;;;;;;5056747;28;20032;-73
2023/12/28 04:37:56;;;;;;;10.60;3.47;;;9.50;99.90;;;;;;5040273;28;20047;-73
2023/12/28 04:40:22;;;;;;;7.85;2.65;;;9.50;99.90;;;;;;5024019;28;20397;-73
2023/12/28 04:42:48;;;;;;;9.85;2.92;;;9.60;99.90;;;;;;5057053;28;20044;-73
2023/12/28 04:45:14;;;;;;;10.25;3.05;;;9.60;99.90;;;;;;5040016;28;20508;-73
2023/12/28 04:47:40;;;;;;;10.93;3.25;;;9.50;99.90;;;;;;5039916;28;20051;-73
2023/12/28 04:50:06;;;;;;;10.40;2.90;;;9.50;99.90;;;;;;5040246;28;20080;-73
2023/12/28 04:52:33;;;;;;;11.00;3.03;;;9.50;99.90;;;;;;5056842;28;20427;-73
2023/12/28 04:54:59;;;;;;;9.57;2.90;;;9.50;99.90;;;;;;5072074;28;20052;-73
2023/12/28 04:57:26;;;;;;;10.55;2.97;;;9.50;99.90;;;;;;5076441;28;20044;-73
2023/12/28 04:59:52;;;;;;;9.45;2.50;;;9.50;99.90;;;;;;5059871;28;20032;-73
2023/12/28 05:02:18;;;;;;;9.52;2.60;;;9.60;99.90;;;;;;5076710;28;20583;-73
2023/12/28 05:04:44;;;;;;;10.00;2.78;;;9.60;99.90;;;;;;5043474;28;20492;-74
2023/12/28 05:07:10;;;;;;;10.18;2.80;;;9.60;99.90;;;;;;5060170;28;20040;-73
2023/12/28 05:09:36;;;;;;;10.50;2.90;;;9.70;99.90;;;;;;5059524;28;20047;-73
2023/12/28 05:12:02;;;;;;;10.38;3.10;;;9.60;99.90;;;;;;5059601;28;20113;-73
2023/12/28 05:14:28;;;;;;;8.73;2.65;;;9.60;99.90;;;;;;5076006;28;20040;-73
2023/12/28 05:16:54;;;;;;;13.55;2.97;;;9.60;99.90;;;;;;5059890;28;20470;-73
2023/12/28 05:19:20;;;;;;;12.02;2.65;;;9.70;99.90;;;;;;5059583;28;20043;-73
2023/12/28 05:21:47;;;;;;;10.38;2.85;;;9.80;99.90;;;;;;5059633;28;20459;-73
2023/12/28 05:24:13;;;;;;;11.20;2.88;;;9.80;99.90;;;;;;5059579;28;20177;-74
2023/12/28 05:26:39;;;;;;;10.23;2.45;;;9.80;99.90;;;;;;5042963;28;20047;-73
2023/12/28 05:29:05;;;;;;;13.15;2.70;;;9.80;99.90;;;;;;5059366;28;20442;-74
2023/12/28 05:31:31;;;;;;;9.57;2.60;;;9.80;99.90;;;;;;5059036;28;20046;-74
2023/12/28 05:33:58;;;;;;;11.93;2.70;;;9.80;99.90;;;;;;5059163;28;20047;-73
2023/12/28 05:36:24;;;;;;;10.65;2.30;;;9.80;99.90;;;;;;5076265;28;20044;-73
2023/12/28 05:38:50;;;;;;;12.20;2.65;;;9.80;99.90;;;;;;5075998;28;20500;-73
2023/12/28 05:41:17;;;;;;;12.02;2.95;;;9.80;99.90;;;;;;5092691;28;20079;-73
2023/12/28 05:43:43;;;;;;;13.65;2.92;;;9.80;99.90;;;;;;5059221;28;20448;-73
2023/12/28 05:46:09;;;;;;;8.45;2.70;;;9.80;99.90;;;;;;5041908;28;20131;-73
2023/12/28 05:48:35;;;;;;;11.38;3.08;;;9.80;99.90;;;;;;5058792;28;20040;-73
2023/12/28 05:51:01;;;;;;;11.50;2.70;;;9.80;99.90;;;;;;5058918;28;20086;-73
2023/12/28 05:53:27;;;;;;;12.52;2.90;;;9.80;99.90;;;;;;5075454;28;20495;-73
2023/12/28 05:55:54;;;;;;;11.30;2.72;;;9.90;99.90;;;;;;5058912;28;20047;-73
2023/12/28 05:58:20;;;;;;;10.73;2.40;;;9.90;99.90;;;;;;5058975;28;20032;-73
2023/12/28 06:00:48;;;;;;;11.38;2.70;;;9.90;99.90;;;;;;5042019;28;20054;-73
2023/12/28 06:03:14;;;;;;;11.05;2.83;;;10.00;99.90;;;;;;5059039;28;20044;-73
2023/12/28 06:05:40;;;;;;;10.65;2.60;;;10.00;99.90;;;;;;5075167;28;20122;-73
2023/12/28 06:08:06;;;;;;;12.90;2.90;;;10.00;99.90;;;;;;5058593;28;20556;-74
2023/12/28 06:10:32;;;;;;;12.18;2.75;;;10.00;99.90;;;;;;5058374;28;20419;-73
2023/12/28 06:12:58;;;;;;;12.35;2.67;;;10.00;99.90;;;;;;5058494;28;20074;-73
2023/12/28 06:15:24;;;;;;;14.63;3.05;;;10.00;99.90;;;;;;5075192;28;20040;-74
2023/12/28 06:17:49;;;;;;;14.95;2.85;;;10.10;99.90;;;;;;5074956;28;20392;-73
2023/12/28 06:20:15;;;;;;;12.65;2.90;;;10.10;99.90;;;;;;5041888;28;20040;-73
2023/12/28 06:22:42;;;;;;;14.25;2.70;;;10.10;99.90;;;;;;5041799;28;20036;-73
2023/12/28 06:25:08;;;;;;;13.98;3.13;;;10.10;99.90;;;;;;5058507;28;20047;-73
2023/12/28 06:27:34;;;;;;;11.93;2.83;;;10.10;99.90;;;;;;5075005;28;20054;-73
2023/12/28 06:29:59;;;;;;;15.63;3.00;;;10.20;99.90;;;;;;5041863;28;20029;-73
2023/12/28 06:32:25;;;;;;;10.80;2.90;;;10.20;99.90;;;;;;5058181;28;20097;-73
2023/12/28 06:34:51;;;;;;;13.60;2.85;;;10.20;99.90;;;;;;5058211;28;20105;-74
2023/12/28 06:37:17;;;;;;;18.05;2.85;;;10.30;99.90;;;;;;5058402;28;20480;-73
2023/12/28 06:39:43;;;;;;;13.65;3.28;;;10.30;99.90;;;;;;5058337;28;20032;-73
2023/12/28 06:42:09;;;;;;;16.08;3.00;;;10.30;99.90;;;;;;5074876;28;20093;-73
2023/12/28 06:44:34;;;;;;;11.65;2.70;;;10.30;99.90;;;;;;5058369;28;20036;-73
2023/12/28 06:47:00;;;;;;;13.80;2.78;;;10.30;99.90;;;;;;5074741;28;20071;-73
2023/12/28 06:49:26;;;;;;;13.35;2.85;;;10.40;99.90;;;;;;5058094;28;20079;-73
2023/12/28 06:51:52;;;;;;;13.40;3.00;;;10.40;99.90;;;;;;5074517;28;20128;-74
2023/12/28 06:54:18;;;;;;;14.25;2.90;;;10.40;99.90;;;;;;5071366;28;20458;-73
2023/12/28 06:56:44;;;;;;;14.68;3.03;;;10.40;99.90;;;;;;5038077;28;20052;-73
2023/12/28 06:59:12;;;;;;;15.00;3.13;;;10.40;99.90;;;;;;5056850;28;20047;-73
2023/12/28 07:01:41;;;;;;;12.55;2.80;;;10.40;99.90;;;;;;5042209;28;20044;-73
2023/12/28 07:04:07;;;;;;;13.15;3.05;;;10.40;99.90;;;;;;5058584;28;20076;-73
2023/12/28 07:06:33;;;;;;;14.15;2.97;;;10.50;99.90;;;;;;5026010;28;20071;-79
2023/12/28 07:08:58;;;;;;;12.57;2.63;;;10.40;99.90;;;;;;5058558;28;20078;-80
2023/12/28 07:11:26;;;;;;;15.43;3.10;;;10.40;99.90;;;;;;5041790;28;20044;-79
2023/12/28 07:13:52;;;;;;;16.52;3.20;;;10.50;99.90;;;;;;5042420;28;20036;-79
2023/12/28 07:16:18;;;;;;;14.60;2.90;;;10.50;99.90;;;;;;5058688;28;20489;-80
2023/12/28 07:18:44;;;;;;;15.20;3.00;;;10.50;99.90;;;;;;5024831;28;20102;-80
2023/12/28 07:21:09;;;;;;;15.07;3.05;;;10.40;99.90;;;;;;5058290;28;20480;-80
2023/12/28 07:23:36;;;;;;;15.05;3.22;;;10.50;99.90;;;;;;5042092;28;20399;-79
2023/12/28 07:26:02;;;;;;;12.77;2.90;;;10.50;99.90;;;;;;5041603;28;20040;-79
2023/12/28 07:28:28;;;;;;;12.93;2.63;;;10.50;99.90;;;;;;5042076;28;20047;-79
2023/12/28 07:30:54;;;;;;;19.55;3.33;;;10.50;99.90;;;;;;5058322;28;20033;-79
2023/12/28 07:33:20;;;;;;;16.08;3.20;;;10.50;99.90;;;;;;5074872;28;20127;-79
2023/12/28 07:35:47;;;;;;;18.48;3.25;;;10.50;99.90;;;;;;5074757;28;20072;-80
2023/12/28 07:38:13;;;;;;;15.27;2.75;;;10.50;99.90;;;;;;5041689;28;20037;-80
2023/12/28 07:40:39;;;;;;;17.20;3.28;;;10.50;99.90;;;;;;5041743;28;20067;-80
2023/12/28 07:43:05;;;;;;;17.60;3.25;;;10.60;99.90;;;;;;5041388;28;20036;-80
2023/12/28 07:45:31;;;;;;;14.75;3.25;;;10.60;99.90;;;;;;5057785;28;20044;-80
2023/12/28 07:47:59;;;;;;;12.82;3.25;;;10.60;99.90;;;;;;5057881;28;20048;-79
2023/12/28 07:50:24;;;;;;;16.92;3.35;;;10.60;99.90;;;;;;5057796;28;20036;-78
2023/12/28 07:52:50;;;;;;;17.20;3.22;;;10.60;99.90;;;;;;5024795;28;20115;-78
2023/12/28 07:55:16;;;;;;;15.88;3.28;;;10.60;99.90;;;;;;5056978;28;20075;-78
2023/12/28 07:57:43;;;;;;;14.50;3.25;;;10.60;99.90;;;;;;5077769;28;20040;-78
2023/12/28 08:00:09;;;;;;;14.70;3.28;;;10.60;99.90;;;;;;5044361;28;20119;-78
2023/12/28 08:02:35;;;;;;;12.43;2.72;;;10.60;99.90;;;;;;5061006;28;20307;-78
2023/12/28 08:05:02;;;;;;;18.15;3.30;;;10.60;99.90;;;;;;5077640;28;20040;-78
2023/12/28 08:07:27;;;;;;;18.52;3.17;;;10.60;99.90;;;;;;5060878;28;20039;-80
2023/12/28 08:09:53;;;;;;;20.27;3.70;;;10.60;99.90;;;;;;5043925;28;20046;-78
2023/12/28 08:12:21;;;;;;;22.25;3.50;;;10.70;99.90;;;;;;5060439;28;20519;-78
2023/12/28 08:14:47;;;;;;;16.23;3.33;;;10.60;99.90;;;;;;5061080;28;20036;-78
2023/12/28 08:17:13;;;;;;;14.50;2.95;;;10.60;99.90;;;;;;5060808;28;20119;-73
2023/12/28 08:19:39;;;;;;;14.45;2.95;;;10.70;99.90;;;;;;5077214;28;20047;-73
2023/12/28 08:22:05;;;;;;;17.70;3.58;;;10.70;99.90;;;;;;5060447;28;20044;-73
2023/12/28 08:24:32;;;;;;;18.63;3.40;;;10.70;99.90;;;;;;5060879;28;20085;-73
2023/12/28 08:26:59;;;;;;;19.85;3.67;;;10.70;99.90;;;;;;5060788;28;20123;-73
2023/12/28 08:29:25;;;;;;;17.90;3.60;;;10.80;99.90;;;;;;5060586;28;20048;-73
2023/12/28 08:31:51;;;;;;;21.80;3.80;;;10.70;99.90;;;;;;5060366;28;20044;-74
2023/12/28 08:34:17;;;;;;;16.27;3.60;;;10.70;99.90;;;;;;5060636;28;20043;-73
2023/12/28 08:36:43;;;;;;;19.60;3.50;;;10.70;99.90;;;;;;5076953;28;20075;-74
2023/12/28 08:39:12;;;;;;;19.88;3.58;;;10.70;99.90;;;;;;5060636;28;20124;-74
2023/12/28 08:41:38;;;;;;;17.05;3.65;;;10.70;99.90;;;;;;5060128;28;20041;-74
2023/12/28 08:44:04;;;;;;;19.77;4.03;;;10.80;99.90;;;;;;5043881;28;20137;-73
2023/12/28 08:46:30;;;;;;;20.02;3.65;;;10.80;99.90;;;;;;5060339;28;20040;-73
2023/12/28 08:48:56;;;;;;;17.38;3.58;;;10.80;99.90;;;;;;5059908;28;20127;-73
2023/12/28 08:51:22;;;;;;;19.08;3.75;;;10.80;99.90;;;;;;5076564;28;20517;-73
2023/12/28 08:53:47;;;;;;;22.27;4.07;;;10.70;99.90;;;;;;5043244;28;20040;-73
2023/12/28 08:56:19;;;;;;;18.42;3.60;;;10.70;99.90;;;;;;5059518;28;20044;-73
2023/12/28 08:58:49;;;;;;;21.27;4.43;;;10.70;99.90;;;;;;5076833;28;20439;-73
2023/12/28 09:01:17;;;;;;;15.32;3.63;;;10.80;99.90;;;;;;5059809;28;20040;-73
2023/12/28 09:03:43;;;;;;;18.17;3.83;;;10.70;99.90;;;;;;5043200;28;20049;-73
2023/12/28 09:06:09;;;;;;;24.00;4.07;;;10.80;99.90;;;;;;5059784;28;20040;-73
2023/12/28 09:08:44;;;;;;;21.23;3.78;;;10.80;99.90;;;;;;5076434;28;20048;-73
2023/12/28 09:11:13;;;;;;;20.55;4.20;;;10.80;99.90;;;;;;5059984;28;20530;-74
2023/12/28 09:13:40;;;;;;;17.70;3.63;;;10.80;99.90;;;;;;5060023;28;20040;-73
2023/12/28 09:16:08;;;;;;;21.65;3.88;;;10.80;99.90;;;;;;5059502;28;20044;-74
2023/12/28 09:18:36;;;;;;;23.27;4.38;;;10.70;99.90;;;;;;5059366;28;20101;-73
2023/12/28 09:21:02;;;;;;;20.35;3.97;;;10.70;99.90;;;;;;5058820;28;20127;-74
2023/12/28 09:23:28;;;;;;;18.25;3.75;;;10.70;99.90;;;;;;5076263;28;20571;-74
2023/12/28 09:25:53;;;;;;;20.27;4.05;;;10.70;99.90;;;;;;5076379;28;20117;-73
2023/12/28 09:28:19;;;;;;;19.17;4.03;;;10.70;99.90;;;;;;5059177;28;20039;-78
2023/12/28 09:30:45;;;;;;;17.23;3.80;;;10.70;99.90;;;;;;5059209;28;20564;-78
2023/12/28 09:33:11;;;;;;;15.82;3.75;;;10.70;99.90;;;;;;5059437;28;20040;-78
2023/12/28 09:35:37;;;;;;;23.77;4.25;;;10.80;99.90;;;;;;5042760;28;20534;-78
2023/12/28 09:38:03;;;;;;;17.80;3.65;;;10.80;99.90;;;;;;5059478;28;20448;-80
2023/12/28 09:40:29;;;;;;;21.30;4.05;;;10.80;99.90;;;;;;5075995;28;20046;-79
2023/12/28 09:43:18;;;;;;;19.30;4.18;;;10.80;99.90;;;;;;5059307;28;20039;-79
2023/12/28 09:45:47;;;;;;;18.08;4.15;;;10.80;99.90;;;;;;5075818;28;20048;-79
2023/12/28 09:48:17;;;;;;;20.08;4.15;;;10.80;99.90;;;;;;5059320;28;20067;-79
2023/12/28 09:50:49;;;;;;;18.73;3.72;;;10.90;99.90;;;;;;5075609;28;20400;-79
2023/12/28 09:53:15;;;;;;;20.35;3.85;;;10.90;99.90;;;;;;5075645;28;20035;-78
2023/12/28 09:55:42;;;;;;;17.52;3.83;;;10.90;99.90;;;;;;5058918;28;20523;-78
2023/12/28 09:58:10;;;;;;;20.48;3.83;;;10.90;99.90;;;;;;5075388;28;20036;-79
2023/12/28 10:00:37;;;;;;;18.13;3.50;;;10.90;99.90;;;;;;5042110;28;20044;-78
2023/12/28 10:03:03;;;;;;;19.88;3.88;;;10.90;99.90;;;;;;5059087;28;20476;-79
2023/12/28 10:05:29;;;;;;;21.27;4.07;;;11.00;99.90;;;;;;5042305;28;20522;-79
2023/12/28 10:07:57;;;;;;;20.10;3.75;;;11.00;99.90;;;;;;5058714;28;20040;-79
2023/12/28 10:10:23;;;;;;;17.20;3.63;;;11.00;99.90;;;;;;5075539;28;20036;-79
2023/12/28 10:12:48;;;;;;;17.90;4.07;;;11.00;99.90;;;;;;5058613;28;20042;-79
2023/12/28 10:15:14;;;;;;;16.80;3.53;;;11.00;99.90;;;;;;5075554;28;20042;-78
2023/12/28 10:17:40;;;;;;;18.90;3.75;;;11.00;99.90;;;;;;5058589;28;20547;-79
2023/12/28 10:20:09;;;;;;;22.52;4.25;;;11.00;99.90;;;;;;5058746;28;20054;-79
2023/12/28 10:22:37;;;;;;;16.08;3.92;;;10.90;99.90;;;;;;5075237;28;20043;-79
2023/12/28 10:25:03;;;;;;;13.45;3.08;;;10.90;99.90;;;;;;5058746;28;20131;-78
2023/12/28 10:27:29;;;;;;;18.33;3.80;;;10.90;99.90;;;;;;5058606;28;20040;-79
2023/12/28 10:29:56;;;;;;;20.38;4.20;;;10.90;99.90;;;;;;5058329;28;20520;-79
2023/12/28 10:32:24;;;;;;;15.43;3.63;;;10.90;99.90;;;;;;5058278;28;20054;-79
2023/12/28 10:34:54;;;;;;;19.50;3.55;;;10.80;99.90;;;;;;5058177;28;20097;-78
2023/12/28 10:37:21;;;;;;;20.25;3.63;;;10.90;99.90;;;;;;5058349;28;20408;-79
2023/12/28 10:39:51;;;;;;;21.65;4.07;;;10.90;99.90;;;;;;5058406;28;20519;-80
2023/12/28 10:42:32;;;;;;;19.52;3.58;;;10.90;99.90;;;;;;5058616;28;20043;-79
2023/12/28 10:45:06;;;;;;;19.92;3.90;;;10.90;99.90;;;;;;5075028;28;20540;-79
2023/12/28 10:47:34;;;;;;;16.75;3.60;;;10.90;99.90;;;;;;5041710;28;20036;-79
2023/12/28 10:50:03;;;;;;;17.10;3.65;;;10.90;99.90;;;;;;5075151;28;20040;-79
2023/12/28 10:52:30;;;;;;;20.10;3.90;;;10.90;99.90;;;;;;5057977;28;20055;-80
2023/12/28 10:55:41;;;;;;;18.25;3.75;;;10.90;99.90;;;;;;5058294;28;20052;-79
2023/12/28 10:58:33;;;;;;;19.10;3.58;;;10.90;99.90;;;;;;4975349;28;20039;-79
2023/12/28 11:01:04;;;;;;;19.27;3.67;;;10.90;99.90;;;;;;5058481;28;20107;-79
2023/12/28 11:03:35;;;;;;;16.08;3.35;;;10.90;99.90;;;;;;5074842;28;20040;-79
2023/12/28 11:06:04;;;;;;;17.95;3.53;;;10.90;99.90;;;;;;5075116;28;20039;-80
2023/12/28 11:08:32;;;;;;;20.38;3.45;;;10.90;99.90;;;;;;5058035;28;20093;-80
2023/12/28 11:11:04;;;;;;;18.08;3.50;;;10.80;99.90;;;;;;5057948;28;20047;-79
2023/12/28 11:13:35;;;;;;;16.98;3.58;;;10.80;99.90;;;;;;5058038;28;20032;-80
2023/12/28 11:16:01;;;;;;;19.63;4.20;;;10.80;99.90;;;;;;5058200;28;20544;-79
2023/12/28 11:18:28;;;;;;;16.00;3.45;;;10.80;99.90;;;;;;5057943;28;20093;-79
2023/12/28 11:20:55;;;;;;;18.27;3.80;;;10.80;99.90;;;;;;5058014;28;20044;-79
2023/12/28 11:23:21;;;;;;;20.88;3.60;;;10.80;99.90;;;;;;5074610;28;20044;-80
2023/12/28 11:25:47;;;;;;;20.05;3.58;;;10.70;99.90;;;;;;5041483;28;20063;-80
2023/12/28 11:28:14;;;;;;;23.58;3.60;;;10.70;99.90;;;;;;5074443;28;20048;-80
2023/12/28 11:30:42;;;;;;;17.73;3.65;;;10.80;99.90;;;;;;5041192;28;20048;-79
2023/12/28 11:33:10;;;;;;;18.38;3.70;;;10.70;99.90;;;;;;5058232;28;20477;-80
2023/12/28 11:35:40;;;;;;;18.15;3.67;;;10.80;99.90;;;;;;5058044;28;20067;-79
2023/12/28 11:38:09;;;;;;;17.67;3.47;;;10.70;99.90;;;;;;5058565;28;20546;-79
2023/12/28 11:40:44;;;;;;;22.58;4.07;;;10.80;99.90;;;;;;5057997;28;20100;-79
2023/12/28 11:43:20;;;;;;;18.20;3.88;;;10.80;99.90;;;;;;5057596;28;20385;-80
2023/12/28 11:45:51;;;;;;;21.02;3.70;;;10.80;99.90;;;;;;5061242;28;20085;-79
2023/12/28 11:48:27;;;;;;;20.25;3.90;;;10.90;99.90;;;;;;5078288;28;20043;-74
2023/12/28 11:50:59;;;;;;;18.23;3.92;;;10.90;99.90;;;;;;5077844;28;20040;-73
2023/12/28 11:53:25;;;;;;;18.80;3.80;;;10.90;99.90;;;;;;5061572;28;20028;-73
2023/12/28 11:55:52;;;;;;;18.95;4.00;;;10.90;99.90;;;;;;5074336;28;20048;-73
2023/12/28 11:58:19;;;;;;;19.33;3.97;;;10.90;99.90;;;;;;5057895;28;20044;-73
2023/12/28 12:00:46;;;;;;;17.77;3.58;;;10.90;99.90;;;;;;5040889;28;20113;-73
2023/12/28 12:03:12;;;;;;;21.77;4.05;;;11.00;99.90;;;;;;5074287;28;20044;-73
2023/12/28 12:05:38;;;;;;;19.70;3.65;;;11.00;99.90;;;;;;5041259;28;20079;-74
2023/12/28 12:08:10;;;;;;;15.85;3.33;;;10.90;99.90;;;;;;5074635;28;20392;-74
2023/12/28 12:10:36;;;;;;;20.15;3.55;;;10.90;99.90;;;;;;5040837;28;20044;-74
2023/12/28 12:13:02;;;;;;;17.08;3.50;;;10.90;99.90;;;;;;5024194;28;20085;-73
2023/12/28 12:15:30;;;;;;;19.67;4.07;;;10.90;99.90;;;;;;5041123;28;20037;-73
2023/12/28 12:17:55;;;;;;;17.45;3.58;;;10.90;99.90;;;;;;5041158;28;20412;-73
2023/12/28 12:20:22;;;;;;;17.15;3.38;;;10.90;99.90;;;;;;5057355;28;20037;-73
2023/12/28 12:22:49;;;;;;;17.45;3.67;;;10.90;99.90;;;;;;5074179;28;20104;-74
2023/12/28 12:25:16;;;;;;;18.20;3.63;;;10.90;99.90;;;;;;5040461;28;20049;-73
2023/12/28 12:27:41;;;;;;;19.45;3.70;;;10.90;99.90;;;;;;5024268;28;20072;-73
2023/12/28 12:30:08;;;;;;;16.35;3.72;;;10.80;99.90;;;;;;5040327;28;20125;-73
2023/12/28 12:32:39;;;;;;;20.23;3.95;;;10.80;99.90;;;;;;5023894;28;20154;-73
2023/12/28 12:35:06;;;;;;;21.23;4.03;;;10.80;99.90;;;;;;5040295;28;20094;-73
2023/12/28 12:37:32;;;;;;;19.30;4.22;;;10.80;99.90;;;;;;5040828;28;20071;-73
2023/12/28 12:39:57;;;;;;;19.42;3.75;;;10.80;99.90;;;;;;5023644;28;20083;-73
2023/12/28 12:42:23;;;;;;;19.05;3.83;;;10.70;99.90;;;;;;5007503;28;20127;-73
2023/12/28 12:44:50;;;;;;;23.33;4.05;;;10.70;99.90;;;;;;5007174;28;20047;-73